Time;durP1;ratioP1;P1;durP2;ratioP2;P2;SDS_P1;SDS_P2;PMS_P1;PMS_P2;Temp;Humidity;BMP_temperature;BMP_pressure;BME280_temperature;BME280_humidity;BME280_pressure;Samples;Min_cycle;Max_cycle;Signal;HPM_P1;HPM_P2
2021/04/08 00:00:05;;;;;;;5.93;1.60;;;;;;;1.57;82.45;102284.53;5264295;28;20379;-73
2021/04/08 00:02:42;;;;;;;13.10;2.40;;;;;;;1.55;82.39;102283.69;5265807;28;20044;-72
2021/04/08 00:05:15;;;;;;;8.85;1.67;;;;;;;1.49;83.06;102284.69;5265000;28;20175;-70
2021/04/08 00:07:46;;;;;;;7.50;1.50;;;;;;;1.46;82.99;102277.88;5264175;28;20028;-69
2021/04/08 00:10:18;;;;;;;6.50;1.60;;;;;;;1.46;82.78;102274.44;5265453;28;20055;-71
2021/04/08 00:12:49;;;;;;;8.20;1.90;;;;;;;1.44;83.27;102269.31;5265469;28;20147;-69
2021/04/08 00:15:20;;;;;;;6.82;1.73;;;;;;;1.43;82.99;102272.78;5268094;28;20033;-69
2021/04/08 00:17:52;;;;;;;9.82;1.50;;;;;;;1.44;83.23;102276.22;5268498;28;20033;-69
2021/04/08 00:20:23;;;;;;;6.57;1.23;;;;;;;1.41;83.09;102271.97;5267127;28;20452;-70
2021/04/08 00:22:54;;;;;;;7.78;1.33;;;;;;;1.48;83.41;102284.72;5269486;28;20471;-70
2021/04/08 00:25:26;;;;;;;7.72;1.63;;;;;;;1.46;83.69;102300.25;5265648;28;20029;-71
2021/04/08 00:27:57;;;;;;;10.63;1.73;;;;;;;1.46;83.38;102308.84;5267767;28;20025;-69
2021/04/08 00:30:28;;;;;;;9.77;1.90;;;;;;;1.47;83.64;102312.28;5267171;28;20031;-70
2021/04/08 00:33:00;;;;;;;11.45;1.83;;;;;;;1.42;83.74;102312.41;5268398;28;20041;-69
2021/04/08 00:35:31;;;;;;;8.82;1.60;;;;;;;1.36;83.60;102304.78;5239257;28;20046;-70
2021/04/08 00:38:02;;;;;;;10.23;1.67;;;;;;;1.29;83.92;102297.22;5247085;28;20048;-70
2021/04/08 00:40:34;;;;;;;11.10;1.95;;;;;;;1.26;82.92;102289.56;5249508;28;20087;-69
2021/04/08 00:43:06;;;;;;;5.28;1.65;;;;;;;1.27;82.17;102297.25;5246074;28;20021;-69
2021/04/08 00:45:37;;;;;;;4.63;1.40;;;;;;;1.32;81.66;102295.41;5248551;28;20029;-70
2021/04/08 00:48:08;;;;;;;5.30;1.20;;;;;;;1.32;81.35;102294.56;5248943;28;20064;-70
2021/04/08 00:50:40;;;;;;;5.28;1.30;;;;;;;1.37;81.37;102295.34;5247941;28;20028;-70
2021/04/08 00:53:23;;;;;;;12.00;2.50;;;;;;;1.41;81.30;102299.53;5245852;28;20055;-69
2021/04/08 00:55:56;;;;;;;6.93;1.52;;;;;;;1.39;81.41;102298.72;5246439;28;20120;-71
2021/04/08 00:58:30;;;;;;;7.90;1.98;;;;;;;1.39;82.47;102296.13;5247643;28;20555;-70
2021/04/08 01:01:01;;;;;;;11.07;2.10;;;;;;;1.36;82.98;102296.19;5221256;28;20045;-69
2021/04/08 01:03:33;;;;;;;9.02;1.95;;;;;;;1.38;82.58;102297.03;5247151;28;20032;-69
2021/04/08 01:06:05;;;;;;;10.57;1.63;;;;;;;1.37;82.95;102301.34;5245515;28;20029;-70
2021/04/08 01:08:36;;;;;;;8.18;1.95;;;;;;;1.38;83.54;102304.75;5245481;28;20045;-70
2021/04/08 01:11:08;;;;;;;12.65;2.63;;;;;;;1.37;83.25;102301.34;5246790;28;20375;-69
2021/04/08 01:13:40;;;;;;;7.00;1.73;;;;;;;1.39;83.46;102306.44;5244821;28;20029;-70
2021/04/08 01:16:19;;;;;;;8.20;2.17;;;;;;;1.39;83.71;102312.47;5246818;28;20095;-69
2021/04/08 01:19:07;;;;;;;7.32;1.90;;;;;;;1.41;83.45;102308.13;5245452;28;20429;-69
2021/04/08 01:21:45;;;;;;;10.50;2.42;;;;;;;1.40;83.77;102306.44;5246089;28;20572;-69
2021/04/08 01:24:31;;;;;;;5.30;1.73;;;;;;;1.45;83.84;102304.59;5244001;28;20059;-71
2021/04/08 01:27:32;;;;;;;6.43;1.52;;;;;;;1.48;83.34;102306.25;5245712;28;20300;-70
2021/04/08 01:30:16;;;;;;;7.50;2.15;;;;;;;1.44;83.49;102309.81;5208276;28;20188;-70
2021/04/08 01:32:51;;;;;;;6.47;1.50;;;;;;;1.43;83.63;102308.94;5246401;28;20029;-70
2021/04/08 01:35:29;;;;;;;8.15;2.05;;;;;;;1.42;83.49;102303.81;5256378;28;20060;-69
2021/04/08 01:38:13;;;;;;;7.70;2.08;;;;;;;1.44;83.23;102310.66;5267271;28;20033;-70
2021/04/08 01:40:47;;;;;;;11.07;2.20;;;;;;;1.40;83.40;102305.56;5267406;28;20025;-69
2021/04/08 01:43:27;;;;;;;9.55;2.17;;;;;;;1.40;83.08;102301.28;5264966;28;20029;-70
2021/04/08 01:46:00;;;;;;;10.68;2.72;;;;;;;1.36;83.57;102296.19;5267411;28;20411;-69
2021/04/08 01:48:33;;;;;;;9.07;2.30;;;;;;;1.40;83.43;102306.44;5267038;28;20513;-70
2021/04/08 01:51:06;;;;;;;10.52;2.67;;;;;;;1.40;83.81;102298.69;5265425;28;20087;-69
2021/04/08 01:53:40;;;;;;;;;;;;;;;1.59;82.42;102295.66;5268904;28;20035;-70
2021/04/08 01:56:13;;;;;;;11.65;2.28;;;;;;;1.40;83.18;102300.41;5265456;28;20436;-70
2021/04/08 01:58:45;;;;;;;9.50;2.47;;;;;;;1.39;82.91;102296.97;5265190;28;20037;-70
2021/04/08 02:01:18;;;;;;;9.85;2.40;;;;;;;1.36;82.76;102299.63;5265251;28;20087;-70
2021/04/08 02:03:50;;;;;;;7.35;2.45;;;;;;;1.36;83.27;102291.88;5263450;28;20021;-70
2021/04/08 02:06:24;;;;;;;10.32;2.83;;;;;;;1.41;83.53;102295.22;5265024;28;20143;-70
2021/04/08 02:08:56;;;;;;;14.63;2.72;;;;;;;1.42;83.05;102298.66;5266349;28;20028;-71
2021/04/08 02:11:29;;;;;;;13.05;3.00;;;;;;;1.41;83.22;102296.94;5262134;28;20039;-70
2021/04/08 02:14:01;;;;;;;10.45;3.42;;;;;;;1.40;83.22;102303.84;5264023;28;20040;-70
2021/04/08 02:16:33;;;;;;;6.75;3.00;;;;;;;1.41;83.15;102307.28;5263328;28;20078;-70
2021/04/08 02:19:07;;;;;;;9.38;2.97;;;;;;;1.44;83.73;102313.22;5262854;28;20056;-69
2021/04/08 02:21:40;;;;;;;9.77;3.95;;;;;;;1.42;83.61;102314.13;5264743;28;20055;-70
2021/04/08 02:24:12;;;;;;;;;;;;;;;1.64;82.64;102317.06;5265080;28;20040;-69
2021/04/08 02:26:45;;;;;;;7.72;2.55;;;;;;;1.47;83.45;102317.44;5265637;28;19916;-70
2021/04/08 02:29:19;;;;;;;9.60;3.17;;;;;;;1.49;83.41;102315.69;5263697;28;20070;-70
2021/04/08 02:31:52;;;;;;;10.77;2.90;;;;;;;1.48;83.29;102311.44;5266861;28;20056;-69
2021/04/08 02:34:24;;;;;;;10.43;3.53;;;;;;;1.44;82.83;102304.63;5261947;28;20053;-69
2021/04/08 02:36:55;;;;;;;8.82;3.28;;;;;;;1.46;83.00;102302.84;5265040;28;20040;-70
2021/04/08 02:39:26;;;;;;;6.22;2.75;;;;;;;1.50;83.50;102316.53;5267054;28;20532;-70
2021/04/08 02:41:58;;;;;;;12.45;3.70;;;;;;;1.50;83.10;102316.53;5264428;28;20031;-70
2021/04/08 02:44:29;;;;;;;15.48;3.75;;;;;;;1.48;83.06;102303.69;5242405;28;20055;-70
2021/04/08 02:47:00;;;;;;;13.82;3.80;;;;;;;1.49;82.92;102307.94;5262370;28;20107;-70
2021/04/08 02:49:32;;;;;;;14.85;3.83;;;;;;;1.50;82.54;102312.22;5264064;28;20078;-69
2021/04/08 02:52:05;;;;;;;7.38;3.05;;;;;;;1.52;83.19;102307.88;5263521;28;20540;-71
2021/04/08 02:54:45;;;;;;;9.73;3.25;;;;;;;1.50;82.95;102308.78;5264160;28;20085;-69
2021/04/08 02:57:33;;;;;;;8.45;3.13;;;;;;;1.56;82.92;102304.34;5265829;28;20029;-70
2021/04/08 03:00:09;;;;;;;11.70;4.40;;;;;;;1.52;83.18;102287.22;5265106;28;20078;-70
2021/04/08 03:02:43;;;;;;;18.13;3.75;;;;;;;1.50;82.64;102295.88;5265359;28;20024;-70
2021/04/08 03:05:16;;;;;;;10.63;3.35;;;;;;;1.51;83.09;102295.84;5265446;28;20036;-70
2021/04/08 03:07:50;;;;;;;18.00;3.53;;;;;;;1.50;82.95;102299.31;5261629;28;20069;-70
2021/04/08 03:10:22;;;;;;;14.15;4.03;;;;;;;1.41;82.72;102286.63;5267062;28;20021;-70
2021/04/08 03:12:55;;;;;;;7.78;3.17;;;;;;;1.43;82.97;102297.75;5265788;28;20056;-70
2021/04/08 03:15:30;;;;;;;12.68;3.75;;;;;;;1.45;82.93;102296.00;5264849;28;20155;-70
2021/04/08 03:18:04;;;;;;;11.43;3.50;;;;;;;1.44;82.86;102294.31;5265239;28;20497;-71
2021/04/08 03:20:38;;;;;;;11.27;3.65;;;;;;;1.43;83.19;102290.00;5264309;28;20371;-70
2021/04/08 03:23:12;;;;;;;13.48;3.92;;;;;;;1.45;83.31;102296.00;5267105;28;20108;-70
2021/04/08 03:25:46;;;;;;;10.18;4.10;;;;;;;1.40;82.79;102295.22;5264388;28;20029;-71
2021/04/08 03:28:19;;;;;;;12.38;3.75;;;;;;;1.39;82.60;102298.72;5269179;28;20111;-70
2021/04/08 03:30:51;;;;;;;12.93;4.00;;;;;;;1.34;82.79;102290.22;5263981;28;20029;-70
2021/04/08 03:33:23;;;;;;;8.77;3.50;;;;;;;1.34;83.01;102293.66;5246566;28;20028;-70
2021/04/08 03:35:55;;;;;;;6.72;3.75;;;;;;;1.34;82.73;102296.25;5265083;28;20485;-70
2021/04/08 03:38:27;;;;;;;15.25;4.30;;;;;;;1.33;82.76;102297.13;5265237;28;20075;-70
2021/04/08 03:40:59;;;;;;;9.15;4.03;;;;;;;1.31;82.25;102290.28;5263610;28;20074;-71
2021/04/08 03:43:31;;;;;;;11.50;3.85;;;;;;;1.32;82.30;102295.41;5264322;28;20055;-70
2021/04/08 03:46:05;;;;;;;18.05;5.22;;;;;;;1.32;82.62;102292.81;5264041;28;20025;-69
2021/04/08 03:48:39;;;;;;;11.93;3.80;;;;;;;1.27;81.62;102289.50;5249467;28;20439;-70
2021/04/08 03:51:12;;;;;;;16.27;3.92;;;;;;;1.25;81.66;102293.88;5268031;28;20216;-70
2021/04/08 03:53:44;;;;;;;10.27;4.20;;;;;;;1.21;81.71;102287.94;5268311;28;20477;-70
2021/04/08 03:56:16;;;;;;;9.70;3.40;;;;;;;1.16;81.38;102288.91;5269789;28;20125;-71
2021/04/08 03:58:48;;;;;;;10.05;4.05;;;;;;;1.12;81.22;102295.88;5269508;28;20538;-70
2021/04/08 04:01:20;;;;;;;11.70;4.43;;;;;;;1.09;81.40;102295.94;5262134;28;20036;-70
2021/04/08 04:03:53;;;;;;;11.82;4.13;;;;;;;1.06;81.41;102290.84;5269191;28;20035;-71
2021/04/08 04:06:24;;;;;;;9.93;4.10;;;;;;;1.07;81.65;102289.13;5265010;28;20083;-71
2021/04/08 04:08:55;;;;;;;8.48;3.75;;;;;;;1.05;81.94;102289.13;5267526;28;20032;-70
2021/04/08 04:11:28;;;;;;;12.80;3.80;;;;;;;0.98;81.54;102282.41;5269088;28;20089;-70
2021/04/08 04:14:00;;;;;;;16.77;3.78;;;;;;;1.05;81.80;102291.72;5267707;28;20107;-70
2021/04/08 04:16:34;;;;;;;11.85;3.72;;;;;;;1.04;81.50;102292.59;5268154;28;20074;-70
2021/04/08 04:19:06;;;;;;;10.77;3.97;;;;;;;1.04;81.75;102292.59;5268628;28;20028;-70
2021/04/08 04:21:37;;;;;;;10.77;3.58;;;;;;;1.04;81.63;102292.59;5268418;28;20035;-70
2021/04/08 04:24:09;;;;;;;10.98;3.97;;;;;;;1.00;80.70;102292.72;5266365;28;20029;-70
2021/04/08 04:26:40;;;;;;;10.80;3.75;;;;;;;1.00;81.47;102296.13;5250567;28;20016;-71
2021/04/08 04:29:12;;;;;;;11.43;4.22;;;;;;;1.02;81.36;102296.94;5266851;28;20589;-70
2021/04/08 04:31:43;;;;;;;12.77;4.20;;;;;;;1.01;81.19;102302.16;5265153;28;20032;-71
2021/04/08 04:34:14;;;;;;;12.10;4.35;;;;;;;1.01;80.90;102294.41;5265548;28;20044;-71
2021/04/08 04:36:47;;;;;;;10.38;4.13;;;;;;;1.02;81.17;102296.94;5270453;28;20021;-70
2021/04/08 04:39:19;;;;;;;9.05;3.70;;;;;;;1.00;80.88;102287.56;5246582;28;20040;-70
2021/04/08 04:41:50;;;;;;;12.85;4.60;;;;;;;1.03;80.82;102295.25;5269055;28;20044;-70
2021/04/08 04:44:21;;;;;;;13.80;4.45;;;;;;;1.02;80.92;102293.50;5268492;28;20031;-70
2021/04/08 04:46:52;;;;;;;12.15;4.53;;;;;;;1.04;81.61;102296.94;5264703;28;20017;-70
2021/04/08 04:49:25;;;;;;;11.55;4.03;;;;;;;1.05;81.23;102303.78;5267611;28;20032;-70
2021/04/08 04:51:56;;;;;;;8.88;3.80;;;;;;;1.00;80.41;102303.88;5267519;28;20028;-70
2021/04/08 04:54:27;;;;;;;12.90;4.53;;;;;;;0.97;80.74;102298.78;5266623;28;20021;-70
2021/04/08 04:56:59;;;;;;;10.57;4.28;;;;;;;0.95;80.47;102298.81;5268250;28;20041;-70
2021/04/08 04:59:30;;;;;;;9.43;3.95;;;;;;;0.95;80.78;102305.72;5271443;28;20228;-70
2021/04/08 05:02:01;;;;;;;11.32;4.15;;;;;;;0.90;80.32;102304.94;5266046;28;20481;-70
2021/04/08 05:04:32;;;;;;;9.65;4.07;;;;;;;0.91;80.66;102309.22;5250441;28;20119;-70
2021/04/08 05:07:04;;;;;;;13.38;4.70;;;;;;;0.87;80.13;102307.59;5269349;28;20033;-70
2021/04/08 05:09:36;;;;;;;13.70;4.53;;;;;;;0.83;80.54;102309.38;5267356;28;20039;-70
2021/04/08 05:12:07;;;;;;;15.05;5.65;;;;;;;0.88;80.12;102314.47;5268554;28;20127;-70
2021/04/08 05:14:39;;;;;;;14.05;4.68;;;;;;;0.87;80.73;102312.75;5267161;28;20028;-70
2021/04/08 05:17:10;;;;;;;10.75;4.45;;;;;;;0.91;80.54;102320.41;5268268;28;20063;-70
2021/04/08 05:19:41;;;;;;;13.18;4.65;;;;;;;0.91;80.82;102325.56;5267519;28;20032;-70
2021/04/08 05:22:12;;;;;;;14.93;5.15;;;;;;;0.90;79.79;102317.84;5267821;28;20029;-70
2021/04/08 05:24:44;;;;;;;9.98;5.05;;;;;;;0.92;80.04;102322.09;5266790;28;20024;-71
2021/04/08 05:27:15;;;;;;;14.15;5.10;;;;;;;0.89;79.47;102322.16;5267970;28;20028;-70
2021/04/08 05:29:46;;;;;;;16.05;6.18;;;;;;;0.90;79.76;102321.28;5267383;28;20031;-70
2021/04/08 05:32:18;;;;;;;14.20;5.40;;;;;;;0.91;79.34;102323.00;5265592;28;20039;-70
2021/04/08 05:34:51;;;;;;;10.02;5.20;;;;;;;0.92;79.13;102327.28;5259454;28;20129;-70
2021/04/08 05:37:22;;;;;;;11.45;4.47;;;;;;;0.90;79.04;102323.84;5246376;28;20049;-70
2021/04/08 05:39:54;;;;;;;10.50;5.13;;;;;;;0.92;79.15;102331.59;5245083;28;20031;-70
2021/04/08 05:42:25;;;;;;;13.02;4.90;;;;;;;0.87;78.67;102321.38;5229887;28;20029;-70
2021/04/08 05:44:56;;;;;;;9.55;5.43;;;;;;;0.92;79.71;102319.53;5245068;28;21012;-70
2021/04/08 05:47:27;;;;;;;21.30;5.70;;;;;;;0.95;79.29;102326.38;5243257;28;20033;-70
2021/04/08 05:49:59;;;;;;;15.35;5.45;;;;;;;0.96;79.03;102328.06;5247769;28;20025;-71
2021/04/08 05:52:30;;;;;;;18.80;6.10;;;;;;;0.99;79.11;102324.56;5246014;28;20140;-71
2021/04/08 05:55:01;;;;;;;14.10;6.05;;;;;;;1.01;78.63;102326.22;5245675;28;20056;-71
2021/04/08 05:57:33;;;;;;;10.05;5.30;;;;;;;1.04;78.86;102335.63;5229663;28;20037;-70
2021/04/08 06:00:07;;;;;;;9.52;4.78;;;;;;;1.04;78.43;102331.31;5245359;28;20517;-70
2021/04/08 06:02:38;;;;;;;12.40;5.78;;;;;;;1.05;78.89;102338.16;5240428;28;20040;-70
2021/04/08 06:05:10;;;;;;;9.32;5.63;;;;;;;1.03;78.56;102331.38;5246977;28;20410;-70
2021/04/08 06:07:42;;;;;;;15.30;5.22;;;;;;;1.07;78.01;102343.31;5242665;28;20052;-71
2021/04/08 06:10:15;;;;;;;9.35;4.93;;;;;;;1.06;78.33;102342.47;5243213;28;20146;-71
2021/04/08 06:12:47;;;;;;;13.07;5.27;;;;;;;1.06;78.28;102337.31;5247678;28;20040;-71
2021/04/08 06:15:19;;;;;;;10.23;5.05;;;;;;;1.07;77.98;102340.75;5245688;28;20063;-71
2021/04/08 06:17:50;;;;;;;13.32;5.65;;;;;;;1.09;77.89;102338.97;5243926;28;20112;-71
2021/04/08 06:20:23;;;;;;;10.90;5.47;;;;;;;1.10;77.75;102338.94;5237765;28;20020;-71
2021/04/08 06:22:56;;;;;;;11.45;4.90;;;;;;;1.14;77.79;102344.91;5235469;28;20029;-71
2021/04/08 06:25:27;;;;;;;15.38;5.80;;;;;;;1.17;77.16;102339.63;5237387;28;20031;-70
2021/04/08 06:27:59;;;;;;;10.35;5.28;;;;;;;1.24;76.77;102345.53;5243107;28;20475;-70
2021/04/08 06:30:34;;;;;;;13.45;5.82;;;;;;;1.34;77.07;102349.63;5230976;28;20025;-70
2021/04/08 06:33:05;;;;;;;14.40;5.85;;;;;;;1.38;76.59;102343.50;5230954;28;20083;-70
2021/04/08 06:35:40;;;;;;;13.65;5.47;;;;;;;1.51;75.68;102352.66;5217931;28;20174;-70
2021/04/08 06:38:13;;;;;;;15.80;5.63;;;;;;;1.63;76.12;102348.94;5244674;28;20032;-70
2021/04/08 06:40:44;;;;;;;13.25;5.38;;;;;;;1.82;75.15;102346.75;5257505;28;20032;-73
2021/04/08 06:43:15;;;;;;;10.82;5.45;;;;;;;2.03;74.95;102348.00;5258423;28;20039;-70
2021/04/08 06:45:53;;;;;;;15.02;5.55;;;;;;;2.27;74.35;102355.09;5260027;28;20478;-69
2021/04/08 06:48:41;;;;;;;12.75;5.13;;;;;;;2.41;73.85;102347.84;5261768;28;20032;-70
2021/04/08 06:51:16;;;;;;;13.50;6.35;;;;;;;2.52;72.89;102354.47;5256663;28;20027;-70
2021/04/08 06:53:49;;;;;;;11.63;4.63;;;;;;;2.54;72.33;102357.84;5253806;28;20034;-69
2021/04/08 06:56:21;;;;;;;11.33;5.40;;;;;;;2.56;73.90;102361.25;5260828;28;20054;-69
2021/04/08 06:58:53;;;;;;;12.83;5.07;;;;;;;2.62;72.34;102361.09;5252689;28;20040;-70
2021/04/08 07:01:24;;;;;;;12.27;5.45;;;;;;;2.62;71.98;102353.34;5261593;28;20528;-69
2021/04/08 07:03:55;;;;;;;13.60;5.78;;;;;;;2.62;72.06;102359.38;5260770;28;20029;-70
2021/04/08 07:06:27;;;;;;;9.73;4.80;;;;;;;2.61;72.03;102364.56;5262185;28;20388;-70
2021/04/08 07:08:58;;;;;;;12.52;5.75;;;;;;;2.64;72.33;102373.09;5263414;28;20041;-70
2021/04/08 07:11:29;;;;;;;10.73;5.00;;;;;;;2.66;69.97;102366.16;5260548;28;20385;-70
2021/04/08 07:14:15;;;;;;;12.50;5.63;;;;;;;2.79;71.67;102373.56;5239566;28;20030;-70
2021/04/08 07:16:46;;;;;;;14.18;5.53;;;;;;;2.81;70.53;102375.22;5243999;28;20078;-70
2021/04/08 07:19:18;;;;;;;11.55;4.88;;;;;;;2.80;70.94;102367.50;5262913;28;20458;-70
2021/04/08 07:21:50;;;;;;;13.05;5.70;;;;;;;2.85;69.98;102376.84;5258733;28;20182;-70
2021/04/08 07:24:25;;;;;;;11.02;6.07;;;;;;;2.90;68.91;102374.13;5262494;28;20036;-70
2021/04/08 07:27:03;;;;;;;9.75;5.22;;;;;;;2.98;71.06;102379.09;5262934;28;20025;-70
2021/04/08 07:29:41;;;;;;;11.20;5.45;;;;;;;3.02;70.42;102372.91;5259882;28;20043;-70
2021/04/08 07:32:19;;;;;;;11.20;5.25;;;;;;;3.06;70.60;102379.72;5257918;28;20036;-70
2021/04/08 07:35:11;;;;;;;11.45;5.95;;;;;;;3.06;70.76;102367.59;5259104;28;20106;-69
2021/04/08 07:37:53;;;;;;;9.10;5.05;;;;;;;3.12;69.31;102380.38;5237465;28;20036;-70
2021/04/08 07:40:27;;;;;;;11.27;5.25;;;;;;;3.17;69.18;102377.66;5232937;28;20047;-70
2021/04/08 07:43:13;;;;;;;9.23;5.63;;;;;;;3.27;69.76;102378.25;5240483;28;20076;-70
2021/04/08 07:45:45;;;;;;;9.88;5.13;;;;;;;3.30;69.29;102376.41;5240989;28;20432;-70
2021/04/08 07:48:16;;;;;;;13.85;5.70;;;;;;;3.35;67.39;102378.84;5220621;28;20037;-70
2021/04/08 07:50:57;;;;;;;10.02;6.15;;;;;;;3.44;67.55;102380.31;5241496;28;20025;-70
2021/04/08 07:53:28;;;;;;;6.18;4.70;;;;;;;3.47;69.21;102372.47;5240451;28;20030;-70
2021/04/08 07:56:00;;;;;;;11.73;4.75;;;;;;;3.51;66.63;102377.50;5238616;28;20492;-70
2021/04/08 07:58:34;;;;;;;9.20;5.43;;;;;;;3.57;68.17;102379.06;5240532;28;20111;-70
2021/04/08 08:01:06;;;;;;;9.00;5.25;;;;;;;3.62;66.52;102378.00;5239040;28;20434;-72
2021/04/08 08:03:42;;;;;;;12.70;4.50;;;;;;;3.72;65.70;102377.75;5242248;28;20037;-70
2021/04/08 08:06:13;;;;;;;8.60;4.70;;;;;;;3.77;65.90;102378.44;5237325;28;20025;-69
2021/04/08 08:08:48;;;;;;;7.85;4.90;;;;;;;3.87;65.79;102382.44;5242241;28;20478;-70
2021/04/08 08:11:21;;;;;;;9.18;5.70;;;;;;;3.94;67.42;102377.88;5239146;28;20119;-70
2021/04/08 08:13:55;;;;;;;10.88;4.95;;;;;;;4.08;64.81;102378.28;5236616;28;21030;-70
2021/04/08 08:16:31;;;;;;;8.65;5.03;;;;;;;4.18;64.96;102378.84;5240052;28;20065;-70
2021/04/08 08:19:03;;;;;;;11.27;5.10;;;;;;;4.28;64.29;102375.88;5222220;28;20056;-70
2021/04/08 08:21:38;;;;;;;9.88;4.90;;;;;;;4.32;64.14;102374.03;5232890;28;20037;-71
2021/04/08 08:24:12;;;;;;;8.27;4.68;;;;;;;4.41;62.58;102381.50;5234674;28;20116;-71
2021/04/08 08:26:44;;;;;;;;;;;;;;;4.62;63.55;102382.47;5239909;28;20032;-71
2021/04/08 08:29:18;;;;;;;6.55;4.03;;;;;;;4.58;59.09;102388.69;5241462;28;19916;-70
2021/04/08 08:31:56;;;;;;;9.30;4.35;;;;;;;4.64;59.95;102389.31;5240167;28;20071;-69
2021/04/08 08:34:32;;;;;;;8.65;4.63;;;;;;;4.74;61.61;102392.47;5243975;28;20398;-69
2021/04/08 08:37:09;;;;;;;6.55;3.70;;;;;;;4.91;60.23;102386.66;5241224;28;20057;-68
2021/04/08 08:39:43;;;;;;;9.13;4.40;;;;;;;4.98;60.59;102382.91;5242326;28;20021;-70
2021/04/08 08:42:17;;;;;;;9.68;4.75;;;;;;;5.16;60.58;102386.59;5240988;28;20056;-70
2021/04/08 08:44:49;;;;;;;7.38;4.25;;;;;;;5.21;57.51;102386.41;5242075;28;20120;-70
2021/04/08 08:47:26;;;;;;;6.93;4.15;;;;;;;5.29;56.63;102390.41;5240233;28;20630;-71
2021/04/08 08:50:04;;;;;;;8.13;4.90;;;;;;;5.40;59.19;102390.00;5238119;28;20310;-71
2021/04/08 08:52:40;;;;;;;7.30;4.22;;;;;;;5.49;56.88;102376.69;5236312;28;20033;-71
2021/04/08 08:55:14;;;;;;;6.15;3.90;;;;;;;5.63;58.63;102377.88;5228312;28;20095;-71
2021/04/08 08:57:54;;;;;;;6.18;4.28;;;;;;;5.77;58.60;102383.38;5216801;28;20037;-71
2021/04/08 09:00:27;;;;;;;10.23;3.35;;;;;;;5.81;54.73;102378.00;5239689;28;20433;-71
2021/04/08 09:03:00;;;;;;;8.25;3.63;;;;;;;5.83;54.34;102381.38;5241536;28;20125;-70
2021/04/08 09:05:34;;;;;;;5.65;3.72;;;;;;;5.91;52.89;102381.09;5239353;28;20451;-70
2021/04/08 09:08:11;;;;;;;9.45;4.18;;;;;;;6.05;56.23;102376.16;5241227;28;20025;-70
2021/04/08 09:10:43;;;;;;;6.28;3.55;;;;;;;6.13;52.79;102373.25;5243131;28;20033;-70
2021/04/08 09:13:16;;;;;;;8.77;3.72;;;;;;;6.18;54.41;102376.53;5238832;28;20486;-69
2021/04/08 09:15:48;;;;;;;;;;;;;;;6.33;50.00;102373.28;5243334;28;20025;-70
2021/04/08 09:18:20;;;;;;;7.05;3.58;;;;;;;6.29;50.36;102370.88;5243113;28;19928;-69
2021/04/08 09:20:54;;;;;;;5.13;3.58;;;;;;;6.30;50.47;102365.59;5237971;28;20111;-70
2021/04/08 09:23:25;;;;;;;;;;;;;;;6.51;52.79;102369.00;5238185;28;20086;-70
2021/04/08 09:26:01;;;;;;;6.47;3.35;;;;;;;6.50;49.57;102376.91;5239524;28;19917;-69
2021/04/08 09:28:40;;;;;;;7.05;3.83;;;;;;;6.64;50.42;102366.75;5238277;28;20153;-69
2021/04/08 09:31:24;;;;;;;8.73;4.28;;;;;;;6.58;49.00;102367.00;5238884;28;20341;-70
2021/04/08 09:33:59;;;;;;;7.25;3.80;;;;;;;6.60;49.85;102369.56;5242258;28;20092;-70
2021/04/08 09:36:34;;;;;;;7.60;4.50;;;;;;;6.60;49.06;102365.19;5255291;28;20061;-69
2021/04/08 09:39:05;;;;;;;6.47;3.72;;;;;;;6.73;49.95;102365.47;5261919;28;20119;-69
2021/04/08 09:41:44;;;;;;;8.53;3.77;;;;;;;6.68;48.84;102370.91;5259011;28;20482;-69
2021/04/08 09:44:17;;;;;;;8.15;4.05;;;;;;;6.70;49.67;102368.22;5257315;28;20970;-69
2021/04/08 09:46:53;;;;;;;9.52;4.32;;;;;;;6.80;51.33;102362.53;5258072;28;20517;-69
2021/04/08 09:49:45;;;;;;;8.65;4.72;;;;;;;6.98;51.65;102357.44;5260570;28;20570;-70
2021/04/08 09:52:17;;;;;;;6.10;4.38;;;;;;;6.99;48.99;102367.75;5259221;28;20486;-70
2021/04/08 09:54:56;;;;;;;8.88;4.47;;;;;;;6.94;45.77;102354.09;5260815;28;20060;-69
2021/04/08 09:57:41;;;;;;;8.35;4.65;;;;;;;7.03;47.82;102350.22;5259774;28;20032;-69
2021/04/08 10:00:14;;;;;;;8.98;4.72;;;;;;;6.91;44.63;102356.84;5261824;28;20032;-69
2021/04/08 10:03:04;;;;;;;8.60;4.82;;;;;;;7.06;46.59;102355.31;5259057;28;20103;-69
2021/04/08 10:05:38;;;;;;;9.05;4.95;;;;;;;7.04;44.64;102360.56;5255067;28;21101;-69
2021/04/08 10:08:09;;;;;;;;;;;;;;;7.19;45.92;102350.38;5257087;28;20409;-70
2021/04/08 10:10:42;;;;;;;10.20;5.35;;;;;;;7.12;43.38;102349.78;5261957;28;19919;-69
2021/04/08 10:13:19;;;;;;;6.85;4.95;;;;;;;7.14;44.34;102355.78;5261885;28;20053;-69
2021/04/08 10:15:54;;;;;;;9.50;5.25;;;;;;;7.19;44.37;102346.00;5262450;28;20211;-69
2021/04/08 10:18:30;;;;;;;7.90;4.88;;;;;;;7.27;46.80;102350.84;5261096;28;20028;-69
2021/04/08 10:21:05;;;;;;;8.63;5.85;;;;;;;7.32;44.75;102344.50;5258421;28;20029;-69
2021/04/08 10:23:42;;;;;;;9.13;5.18;;;;;;;7.41;44.14;102345.00;5262423;28;20074;-69
2021/04/08 10:26:15;;;;;;;6.57;5.30;;;;;;;7.49;45.36;102338.50;5260933;28;20458;-70
2021/04/08 10:28:52;;;;;;;10.20;6.13;;;;;;;7.45;44.71;102339.56;5254251;28;20048;-70
2021/04/08 10:31:29;;;;;;;11.25;5.50;;;;;;;7.39;43.92;102326.00;5262107;28;20496;-69
2021/04/08 10:34:08;;;;;;;8.15;6.03;;;;;;;7.37;44.10;102333.88;5263945;28;20086;-69
2021/04/08 10:36:49;;;;;;;8.50;6.25;;;;;;;7.37;45.53;102331.25;5261663;28;20745;-69
2021/04/08 10:39:27;;;;;;;7.50;5.28;;;;;;;7.32;42.92;102323.66;5262306;28;20489;-69
2021/04/08 10:42:05;;;;;;;9.23;6.10;;;;;;;7.40;45.38;102328.50;5241291;28;20473;-69
2021/04/08 10:44:37;;;;;;;10.48;4.90;;;;;;;7.47;42.83;102327.31;5259548;28;20029;-69
2021/04/08 10:47:09;;;;;;;7.32;4.80;;;;;;;7.44;42.37;102335.25;5254204;28;20059;-69
2021/04/08 10:49:55;;;;;;;9.10;4.70;;;;;;;7.60;44.25;102329.31;5256846;28;20170;-70
2021/04/08 10:52:32;;;;;;;8.77;5.72;;;;;;;7.60;43.32;102324.94;5261223;28;20468;-70
2021/04/08 10:55:03;;;;;;;8.35;5.18;;;;;;;7.76;44.12;102328.47;5260997;28;20028;-70
2021/04/08 10:57:35;;;;;;;8.77;5.18;;;;;;;7.66;41.21;102327.25;5256062;28;20574;-70
2021/04/08 11:00:08;;;;;;;10.65;5.90;;;;;;;7.70;42.92;102325.34;5263691;28;20075;-70
2021/04/08 11:02:41;;;;;;;9.50;5.35;;;;;;;7.63;42.34;102323.94;5260672;28;20136;-70
2021/04/08 11:05:24;;;;;;;6.85;4.88;;;;;;;7.60;43.54;102322.31;5261810;28;20060;-70
2021/04/08 11:07:58;;;;;;;8.70;5.30;;;;;;;7.53;43.00;102321.78;5262733;28;20055;-70
2021/04/08 11:10:31;;;;;;;6.50;4.97;;;;;;;7.62;44.05;102323.13;5261749;28;20024;-70
2021/04/08 11:13:03;;;;;;;11.20;5.85;;;;;;;7.62;43.92;102314.44;5261654;28;20052;-70
2021/04/08 11:15:36;;;;;;;9.40;5.88;;;;;;;7.62;44.26;102317.06;5253697;28;20048;-69
2021/04/08 11:18:12;;;;;;;8.27;5.32;;;;;;;7.79;44.35;102309.22;5257486;28;20587;-69
2021/04/08 11:20:46;;;;;;;9.05;5.68;;;;;;;7.76;44.14;102315.44;5257794;28;20025;-71
2021/04/08 11:23:22;;;;;;;8.63;5.65;;;;;;;7.83;44.77;102315.13;5261357;28;20472;-69
2021/04/08 11:26:02;;;;;;;8.18;5.95;;;;;;;7.82;43.75;102314.31;5258848;28;20533;-69
2021/04/08 11:28:41;;;;;;;8.18;5.20;;;;;;;7.86;45.15;102321.06;5255701;28;20059;-69
2021/04/08 11:31:15;;;;;;;8.88;5.63;;;;;;;7.92;42.98;102318.16;5263625;28;20039;-69
2021/04/08 11:34:01;;;;;;;10.45;6.03;;;;;;;8.01;43.04;102311.59;5256873;28;20028;-69
2021/04/08 11:36:33;;;;;;;10.88;6.88;;;;;;;7.89;43.99;102312.22;5256576;28;20051;-69
2021/04/08 11:39:11;;;;;;;7.60;5.93;;;;;;;7.84;41.64;102316.81;5252589;28;20037;-69
2021/04/08 11:41:42;;;;;;;9.13;6.07;;;;;;;7.80;42.03;102310.91;5255865;28;20033;-69
2021/04/08 11:44:24;;;;;;;12.02;6.20;;;;;;;7.99;42.81;102303.88;5255230;28;20029;-69
2021/04/08 11:46:56;;;;;;;11.07;6.85;;;;;;;7.95;41.54;102304.91;5258401;28;20786;-69
2021/04/08 11:49:27;;;;;;;8.43;6.50;;;;;;;8.01;42.36;102309.00;5260962;28;20017;-69
2021/04/08 11:52:09;;;;;;;10.05;7.35;;;;;;;8.03;41.38;102302.78;5254007;28;20384;-69
2021/04/08 11:55:05;;;;;;;9.35;6.43;;;;;;;8.04;41.91;102298.41;5258907;28;20040;-69
2021/04/08 11:57:36;;;;;;;12.70;7.50;;;;;;;7.95;42.17;102299.69;5260774;28;20032;-69
2021/04/08 12:00:12;;;;;;;10.40;7.35;;;;;;;7.97;42.48;102294.44;5258783;28;20485;-70
2021/04/08 12:02:43;;;;;;;14.07;8.00;;;;;;;7.93;42.11;102296.34;5259351;28;20068;-70